sensor_id;sensor_type;location;lat;lon;timestamp;pressure;altitude;pressure_sealevel;temperature;humidity
6532;BME280;3299;42.004;24.868;2023-04-03T00:00:39;97547.59;;;11.88;57.30
6532;BME280;3299;42.004;24.868;2023-04-03T00:03:05;97464.41;;;11.42;56.85
6532;BME280;3299;42.004;24.868;2023-04-03T00:05:30;97518.25;;;11.78;57.36
6532;BME280;3299;42.004;24.868;2023-04-03T00:07:56;97516.19;;;11.82;57.38
6532;BME280;3299;42.004;24.868;2023-04-03T00:10:21;97512.25;;;11.78;56.08
6532;BME280;3299;42.004;24.868;2023-04-03T00:12:47;97550.59;;;11.93;55.53
6532;BME280;3299;42.004;24.868;2023-04-03T00:15:13;97499.00;;;11.62;55.81
6532;BME280;3299;42.004;24.868;2023-04-03T00:17:38;97533.38;;;11.83;56.48
6532;BME280;3299;42.004;24.868;2023-04-03T00:20:04;97493.25;;;11.58;57.28
6532;BME280;3299;42.004;24.868;2023-04-03T00:22:30;97508.34;;;11.53;58.33
6532;BME280;3299;42.004;24.868;2023-04-03T00:24:56;97471.91;;;11.45;58.09
6532;BME280;3299;42.004;24.868;2023-04-03T00:27:21;97522.94;;;11.54;58.84
6532;BME280;3299;42.004;24.868;2023-04-03T00:29:47;97511.00;;;11.63;58.71
6532;BME280;3299;42.004;24.868;2023-04-03T00:32:13;97559.47;;;11.91;59.11
6532;BME280;3299;42.004;24.868;2023-04-03T00:34:38;97521.59;;;11.60;58.50
6532;BME280;3299;42.004;24.868;2023-04-03T00:37:04;97568.56;;;11.76;58.07
6532;BME280;3299;42.004;24.868;2023-04-03T00:39:29;97478.44;;;11.30;57.91
6532;BME280;3299;42.004;24.868;2023-04-03T00:41:55;97525.50;;;11.45;58.49
6532;BME280;3299;42.004;24.868;2023-04-03T00:46:58;97547.84;;;11.46;58.66
6532;BME280;3299;42.004;24.868;2023-04-03T00:49:24;97481.19;;;10.99;59.50
6532;BME280;3299;42.004;24.868;2023-04-03T00:51:50;97561.44;;;11.38;59.97
6532;BME280;3299;42.004;24.868;2023-04-03T00:54:16;97526.88;;;11.19;59.66
6532;BME280;3299;42.004;24.868;2023-04-03T00:56:42;97503.09;;;10.95;60.42
6532;BME280;3299;42.004;24.868;2023-04-03T00:59:13;97497.22;;;10.93;60.82
6532;BME280;3299;42.004;24.868;2023-04-03T01:01:40;97549.78;;;11.14;60.72
6532;BME280;3299;42.004;24.868;2023-04-03T01:04:35;97520.50;;;10.93;60.92
6532;BME280;3299;42.004;24.868;2023-04-03T01:07:06;97557.56;;;11.14;59.51
6532;BME280;3299;42.004;24.868;2023-04-03T01:09:33;97576.53;;;11.24;59.31
6532;BME280;3299;42.004;24.868;2023-04-03T01:12:25;97569.97;;;11.20;58.89
6532;BME280;3299;42.004;24.868;2023-04-03T01:15:05;97561.13;;;11.22;59.28
6532;BME280;3299;42.004;24.868;2023-04-03T01:17:40;97461.44;;;10.68;58.43
6532;BME280;3299;42.004;24.868;2023-04-03T01:25:11;97517.31;;;11.10;60.86
6532;BME280;3299;42.004;24.868;2023-04-03T01:27:36;97494.88;;;10.90;60.52
6532;BME280;3299;42.004;24.868;2023-04-03T01:30:02;97533.91;;;10.98;61.72
6532;BME280;3299;42.004;24.868;2023-04-03T01:32:28;97521.03;;;10.87;61.15
6532;BME280;3299;42.004;24.868;2023-04-03T01:34:53;97496.97;;;10.75;61.02
6532;BME280;3299;42.004;24.868;2023-04-03T01:37:19;97511.06;;;10.82;60.89
6532;BME280;3299;42.004;24.868;2023-04-03T01:39:44;97463.66;;;10.52;60.55
6532;BME280;3299;42.004;24.868;2023-04-03T01:42:10;97467.75;;;10.54;61.14
6532;BME280;3299;42.004;24.868;2023-04-03T01:44:36;97553.97;;;11.05;60.89
6532;BME280;3299;42.004;24.868;2023-04-03T01:47:05;97538.19;;;10.88;60.60
6532;BME280;3299;42.004;24.868;2023-04-03T01:49:31;97499.53;;;10.66;60.48
6532;BME280;3299;42.004;24.868;2023-04-03T01:51:59;97534.09;;;10.85;60.70
6532;BME280;3299;42.004;24.868;2023-04-03T01:54:24;97511.81;;;10.73;60.88
6532;BME280;3299;42.004;24.868;2023-04-03T01:56:50;97466.31;;;10.41;60.44
6532;BME280;3299;42.004;24.868;2023-04-03T01:59:15;97500.66;;;10.52;60.74
6532;BME280;3299;42.004;24.868;2023-04-03T02:01:42;97554.34;;;10.80;61.54
6532;BME280;3299;42.004;24.868;2023-04-03T02:04:10;97546.59;;;10.80;61.34
6532;BME280;3299;42.004;24.868;2023-04-03T02:06:36;97491.41;;;10.50;61.22
6532;BME280;3299;42.004;24.868;2023-04-03T02:09:01;97536.00;;;10.83;61.31
6532;BME280;3299;42.004;24.868;2023-04-03T02:11:27;97552.16;;;10.76;61.80
6532;BME280;3299;42.004;24.868;2023-04-03T02:13:52;97549.31;;;10.79;61.99
6532;BME280;3299;42.004;24.868;2023-04-03T02:16:17;97565.59;;;10.70;62.27
6532;BME280;3299;42.004;24.868;2023-04-03T02:18:43;97503.34;;;10.41;60.94
6532;BME280;3299;42.004;24.868;2023-04-03T02:21:08;97555.06;;;10.62;61.39
6532;BME280;3299;42.004;24.868;2023-04-03T02:23:34;97546.34;;;10.63;62.11
6532;BME280;3299;42.004;24.868;2023-04-03T02:26:09;97525.53;;;10.44;62.59
6532;BME280;3299;42.004;24.868;2023-04-03T02:28:35;97477.25;;;10.13;63.12
6532;BME280;3299;42.004;24.868;2023-04-03T02:31:01;97486.88;;;10.22;61.82
6532;BME280;3299;42.004;24.868;2023-04-03T02:33:27;97475.75;;;9.99;61.91
6532;BME280;3299;42.004;24.868;2023-04-03T02:35:54;97529.59;;;10.26;62.56
6532;BME280;3299;42.004;24.868;2023-04-03T02:38:20;97485.97;;;10.12;63.25
6532;BME280;3299;42.004;24.868;2023-04-03T02:40:45;97517.13;;;10.31;62.42
6532;BME280;3299;42.004;24.868;2023-04-03T02:43:10;97515.50;;;10.30;62.31
6532;BME280;3299;42.004;24.868;2023-04-03T02:45:36;97549.38;;;10.47;62.40
6532;BME280;3299;42.004;24.868;2023-04-03T02:48:01;97463.91;;;9.97;63.10
6532;BME280;3299;42.004;24.868;2023-04-03T02:50:27;97465.03;;;9.83;63.51
6532;BME280;3299;42.004;24.868;2023-04-03T02:52:52;97489.19;;;9.93;63.65
6532;BME280;3299;42.004;24.868;2023-04-03T02:55:17;97466.91;;;9.81;63.99
6532;BME280;3299;42.004;24.868;2023-04-03T02:57:43;97529.88;;;10.23;63.94
6532;BME280;3299;42.004;24.868;2023-04-03T03:00:09;97525.38;;;10.25;64.05
6532;BME280;3299;42.004;24.868;2023-04-03T03:02:35;97499.38;;;10.06;63.77
6532;BME280;3299;42.004;24.868;2023-04-03T03:05:00;97491.41;;;10.09;63.64
6532;BME280;3299;42.004;24.868;2023-04-03T03:07:26;97481.31;;;9.95;63.90
6532;BME280;3299;42.004;24.868;2023-04-03T03:09:51;97501.09;;;10.16;63.52
6532;BME280;3299;42.004;24.868;2023-04-03T03:12:17;97498.78;;;10.13;62.85
6532;BME280;3299;42.004;24.868;2023-04-03T03:14:47;97463.84;;;9.87;62.64
6532;BME280;3299;42.004;24.868;2023-04-03T03:17:12;97549.44;;;10.36;62.53
6532;BME280;3299;42.004;24.868;2023-04-03T03:19:38;97505.25;;;10.08;63.38
6532;BME280;3299;42.004;24.868;2023-04-03T03:22:03;97529.69;;;10.15;64.10
6532;BME280;3299;42.004;24.868;2023-04-03T03:24:28;97480.38;;;9.96;63.49
6532;BME280;3299;42.004;24.868;2023-04-03T03:26:54;97521.09;;;10.14;63.71
6532;BME280;3299;42.004;24.868;2023-04-03T03:29:20;97475.28;;;10.05;63.35
6532;BME280;3299;42.004;24.868;2023-04-03T03:31:45;97519.94;;;10.39;63.52
6532;BME280;3299;42.004;24.868;2023-04-03T03:34:11;97454.78;;;9.93;63.69
6532;BME280;3299;42.004;24.868;2023-04-03T03:36:37;97492.47;;;10.07;63.34
6532;BME280;3299;42.004;24.868;2023-04-03T03:39:02;97430.00;;;9.70;63.38
6532;BME280;3299;42.004;24.868;2023-04-03T03:41:27;97420.84;;;9.66;63.56
6532;BME280;3299;42.004;24.868;2023-04-03T03:43:53;97493.16;;;9.97;63.83
6532;BME280;3299;42.004;24.868;2023-04-03T03:46:18;97474.81;;;9.80;64.14
6532;BME280;3299;42.004;24.868;2023-04-03T03:48:44;97441.53;;;9.55;64.47
6532;BME280;3299;42.004;24.868;2023-04-03T03:51:10;97488.88;;;9.87;64.48
6532;BME280;3299;42.004;24.868;2023-04-03T03:53:35;97515.72;;;9.95;64.75
6532;BME280;3299;42.004;24.868;2023-04-03T03:56:01;97532.03;;;10.07;64.63
6532;BME280;3299;42.004;24.868;2023-04-03T03:58:26;97495.47;;;9.80;64.75
6532;BME280;3299;42.004;24.868;2023-04-03T04:00:52;97458.06;;;9.63;64.45
6532;BME280;3299;42.004;24.868;2023-04-03T04:03:17;97534.28;;;10.00;64.50
6532;BME280;3299;42.004;24.868;2023-04-03T04:05:43;97491.50;;;9.65;64.83
6532;BME280;3299;42.004;24.868;2023-04-03T04:08:08;97500.19;;;9.75;64.64
6532;BME280;3299;42.004;24.868;2023-04-03T04:10:34;97550.00;;;9.97;64.98
6532;BME280;3299;42.004;24.868;2023-04-03T04:13:00;97506.53;;;9.71;65.07
6532;BME280;3299;42.004;24.868;2023-04-03T04:15:26;97505.13;;;9.67;65.30
6532;BME280;3299;42.004;24.868;2023-04-03T04:17:52;97500.13;;;9.55;65.31
6532;BME280;3299;42.004;24.868;2023-04-03T04:20:18;97575.28;;;10.05;65.04
6532;BME280;3299;42.004;24.868;2023-04-03T04:22:44;97561.41;;;9.95;65.04
6532;BME280;3299;42.004;24.868;2023-04-03T04:25:09;97563.97;;;10.17;64.75
6532;BME280;3299;42.004;24.868;2023-04-03T04:27:35;97564.06;;;10.15;64.42
6532;BME280;3299;42.004;24.868;2023-04-03T04:30:02;97492.47;;;9.64;64.73
6532;BME280;3299;42.004;24.868;2023-04-03T04:32:28;97574.09;;;10.09;65.17
6532;BME280;3299;42.004;24.868;2023-04-03T04:34:53;97559.03;;;10.14;65.14
6532;BME280;3299;42.004;24.868;2023-04-03T04:37:19;97564.06;;;10.15;65.03
6532;BME280;3299;42.004;24.868;2023-04-03T04:39:44;97554.50;;;10.07;65.13
6532;BME280;3299;42.004;24.868;2023-04-03T04:42:10;97568.16;;;10.29;64.97
6532;BME280;3299;42.004;24.868;2023-04-03T04:44:38;97554.06;;;10.22;64.87
6532;BME280;3299;42.004;24.868;2023-04-03T04:47:04;97478.31;;;9.79;64.75
6532;BME280;3299;42.004;24.868;2023-04-03T04:49:29;97529.97;;;10.21;64.54
6532;BME280;3299;42.004;24.868;2023-04-03T04:51:55;97536.94;;;10.21;64.47
6532;BME280;3299;42.004;24.868;2023-04-03T04:54:20;97565.06;;;10.35;64.71
6532;BME280;3299;42.004;24.868;2023-04-03T04:56:46;97532.50;;;10.12;64.68
6532;BME280;3299;42.004;24.868;2023-04-03T04:59:12;97487.34;;;9.84;64.34
6532;BME280;3299;42.004;24.868;2023-04-03T05:01:37;97475.47;;;9.93;64.11
6532;BME280;3299;42.004;24.868;2023-04-03T05:04:03;97494.50;;;9.92;63.82
6532;BME280;3299;42.004;24.868;2023-04-03T05:06:28;97539.56;;;10.10;64.30
6532;BME280;3299;42.004;24.868;2023-04-03T05:08:55;97574.22;;;10.39;64.15
6532;BME280;3299;42.004;24.868;2023-04-03T05:11:21;97535.03;;;10.23;63.96
6532;BME280;3299;42.004;24.868;2023-04-03T05:13:46;97579.34;;;10.50;63.79
6532;BME280;3299;42.004;24.868;2023-04-03T05:16:12;97591.28;;;10.62;63.32
6532;BME280;3299;42.004;24.868;2023-04-03T05:18:37;97583.06;;;10.57;63.33
6532;BME280;3299;42.004;24.868;2023-04-03T05:21:03;97512.38;;;10.15;63.25
6532;BME280;3299;42.004;24.868;2023-04-03T05:23:28;97529.94;;;10.32;63.02
6532;BME280;3299;42.004;24.868;2023-04-03T05:25:54;97538.25;;;10.36;63.32
6532;BME280;3299;42.004;24.868;2023-04-03T05:28:19;97601.06;;;10.79;62.76
6532;BME280;3299;42.004;24.868;2023-04-03T05:30:45;97571.28;;;10.64;62.57
6532;BME280;3299;42.004;24.868;2023-04-03T05:33:10;97601.13;;;10.88;62.57
6532;BME280;3299;42.004;24.868;2023-04-03T05:35:37;97610.19;;;10.83;62.40
6532;BME280;3299;42.004;24.868;2023-04-03T05:38:07;97560.03;;;10.54;62.51
6532;BME280;3299;42.004;24.868;2023-04-03T05:40:32;97595.91;;;10.79;62.91
6532;BME280;3299;42.004;24.868;2023-04-03T05:42:58;97565.84;;;10.67;62.37
6532;BME280;3299;42.004;24.868;2023-04-03T05:45:23;97532.97;;;10.37;62.28
6532;BME280;3299;42.004;24.868;2023-04-03T05:47:48;97541.97;;;10.43;62.14
6532;BME280;3299;42.004;24.868;2023-04-03T05:50:14;97570.31;;;10.65;62.00
6532;BME280;3299;42.004;24.868;2023-04-03T05:52:44;97575.44;;;10.76;61.92
6532;BME280;3299;42.004;24.868;2023-04-03T05:55:10;97541.81;;;10.55;61.34
6532;BME280;3299;42.004;24.868;2023-04-03T05:57:36;97590.84;;;10.98;61.09
6532;BME280;3299;42.004;24.868;2023-04-03T06:00:06;97535.75;;;10.66;61.27
6532;BME280;3299;42.004;24.868;2023-04-03T06:02:33;97596.53;;;10.92;61.35
6532;BME280;3299;42.004;24.868;2023-04-03T06:04:58;97515.25;;;10.33;62.17
6532;BME280;3299;42.004;24.868;2023-04-03T06:07:24;97596.75;;;10.89;62.40
6532;BME280;3299;42.004;24.868;2023-04-03T06:09:53;97514.59;;;10.40;62.93
6532;BME280;3299;42.004;24.868;2023-04-03T06:12:21;97522.31;;;10.51;62.24
6532;BME280;3299;42.004;24.868;2023-04-03T06:14:47;97618.91;;;11.23;61.86
6532;BME280;3299;42.004;24.868;2023-04-03T06:17:13;97625.41;;;11.38;61.20
6532;BME280;3299;42.004;24.868;2023-04-03T06:19:39;97608.63;;;11.42;61.51
6532;BME280;3299;42.004;24.868;2023-04-03T06:22:04;97594.69;;;11.33;60.88
6532;BME280;3299;42.004;24.868;2023-04-03T06:24:30;97604.50;;;11.60;60.09
6532;BME280;3299;42.004;24.868;2023-04-03T06:26:56;97592.88;;;11.54;59.88
6532;BME280;3299;42.004;24.868;2023-04-03T06:29:22;97536.47;;;11.28;60.39
6532;BME280;3299;42.004;24.868;2023-04-03T06:31:49;97562.63;;;11.55;59.56
6532;BME280;3299;42.004;24.868;2023-04-03T06:34:15;97606.56;;;11.96;59.80
6532;BME280;3299;42.004;24.868;2023-04-03T06:36:41;97513.13;;;11.58;59.14
6532;BME280;3299;42.004;24.868;2023-04-03T06:39:06;97550.28;;;11.77;58.84
6532;BME280;3299;42.004;24.868;2023-04-03T06:41:32;97567.78;;;11.94;58.40
6532;BME280;3299;42.004;24.868;2023-04-03T06:43:58;97619.16;;;12.29;58.40
6532;BME280;3299;42.004;24.868;2023-04-03T06:46:25;97563.81;;;11.90;58.29
6532;BME280;3299;42.004;24.868;2023-04-03T06:48:52;97615.69;;;12.09;58.36
6532;BME280;3299;42.004;24.868;2023-04-03T06:51:26;97597.28;;;12.03;58.49
6532;BME280;3299;42.004;24.868;2023-04-03T06:53:54;97585.81;;;11.96;58.36
6532;BME280;3299;42.004;24.868;2023-04-03T06:56:20;97577.63;;;12.00;58.40
6532;BME280;3299;42.004;24.868;2023-04-03T06:58:46;97622.88;;;12.36;57.88
6532;BME280;3299;42.004;24.868;2023-04-03T07:01:14;97551.16;;;11.97;57.98
6532;BME280;3299;42.004;24.868;2023-04-03T07:03:40;97581.72;;;12.03;57.85
6532;BME280;3299;42.004;24.868;2023-04-03T07:06:07;97639.34;;;12.35;58.11
6532;BME280;3299;42.004;24.868;2023-04-03T07:08:34;97564.53;;;12.11;59.28
6532;BME280;3299;42.004;24.868;2023-04-03T07:11:00;97647.84;;;12.75;59.38
6532;BME280;3299;42.004;24.868;2023-04-03T07:13:25;97597.31;;;12.41;57.33
6532;BME280;3299;42.004;24.868;2023-04-03T07:15:51;97644.03;;;12.79;57.08
6532;BME280;3299;42.004;24.868;2023-04-03T07:18:17;97653.34;;;12.72;57.37
6532;BME280;3299;42.004;24.868;2023-04-03T07:20:42;97664.66;;;12.90;56.96
6532;BME280;3299;42.004;24.868;2023-04-03T07:23:08;97573.84;;;12.42;57.54
6532;BME280;3299;42.004;24.868;2023-04-03T07:25:34;97652.00;;;13.06;57.43
6532;BME280;3299;42.004;24.868;2023-04-03T07:28:00;97614.53;;;12.99;57.02
6532;BME280;3299;42.004;24.868;2023-04-03T07:30:25;97631.59;;;13.01;56.29
6532;BME280;3299;42.004;24.868;2023-04-03T07:32:51;97650.31;;;13.05;56.71
6532;BME280;3299;42.004;24.868;2023-04-03T07:35:17;97610.16;;;12.90;57.08
6532;BME280;3299;42.004;24.868;2023-04-03T07:37:42;97574.63;;;12.81;57.12
6532;BME280;3299;42.004;24.868;2023-04-03T07:40:08;97556.91;;;12.67;56.78
6532;BME280;3299;42.004;24.868;2023-04-03T07:42:35;97556.59;;;12.70;55.86
6532;BME280;3299;42.004;24.868;2023-04-03T07:45:02;97637.41;;;13.41;55.31
6532;BME280;3299;42.004;24.868;2023-04-03T07:47:29;97634.13;;;13.39;55.87
6532;BME280;3299;42.004;24.868;2023-04-03T07:49:55;97555.63;;;12.99;54.92
6532;BME280;3299;42.004;24.868;2023-04-03T07:52:22;97564.75;;;13.13;55.24
6532;BME280;3299;42.004;24.868;2023-04-03T07:54:48;97630.50;;;13.59;56.81
6532;BME280;3299;42.004;24.868;2023-04-03T07:57:13;97646.31;;;13.75;57.55
6532;BME280;3299;42.004;24.868;2023-04-03T07:59:39;97601.00;;;13.51;57.12
6532;BME280;3299;42.004;24.868;2023-04-03T08:02:09;97593.31;;;13.59;57.11
6532;BME280;3299;42.004;24.868;2023-04-03T08:04:34;97566.59;;;13.39;57.45
6532;BME280;3299;42.004;24.868;2023-04-03T08:07:00;97559.81;;;13.56;57.05
6532;BME280;3299;42.004;24.868;2023-04-03T08:09:26;97606.31;;;13.86;56.89
6532;BME280;3299;42.004;24.868;2023-04-03T08:11:51;97595.09;;;13.85;57.05
6532;BME280;3299;42.004;24.868;2023-04-03T08:14:18;97630.09;;;13.91;57.92
6532;BME280;3299;42.004;24.868;2023-04-03T08:16:45;97613.34;;;13.76;58.42
6532;BME280;3299;42.004;24.868;2023-04-03T08:19:11;97589.09;;;13.48;58.69
6532;BME280;3299;42.004;24.868;2023-04-03T08:21:39;97607.97;;;13.77;58.39
6532;BME280;3299;42.004;24.868;2023-04-03T08:24:07;97616.91;;;14.02;58.14
6532;BME280;3299;42.004;24.868;2023-04-03T08:26:33;97593.34;;;14.03;57.86
6532;BME280;3299;42.004;24.868;2023-04-03T08:28:58;97551.03;;;13.84;57.75
6532;BME280;3299;42.004;24.868;2023-04-03T08:31:24;97616.16;;;14.36;57.59
6532;BME280;3299;42.004;24.868;2023-04-03T08:33:49;97622.34;;;14.53;58.00
6532;BME280;3299;42.004;24.868;2023-04-03T08:38:42;97533.91;;;14.08;58.92
6532;BME280;3299;42.004;24.868;2023-04-03T08:52:03;97594.69;;;14.52;61.49
6532;BME280;3299;42.004;24.868;2023-04-03T08:54:34;97474.97;;;13.82;61.97
6532;BME280;3299;42.004;24.868;2023-04-03T08:57:02;97512.47;;;13.97;62.75
6532;BME280;3299;42.004;24.868;2023-04-03T08:59:33;97590.38;;;14.43;63.30
6532;BME280;3299;42.004;24.868;2023-04-03T09:02:13;97555.44;;;14.28;61.76
6532;BME280;3299;42.004;24.868;2023-04-03T09:04:42;97511.41;;;14.17;61.21
6532;BME280;3299;42.004;24.868;2023-04-03T09:07:14;97508.41;;;14.12;60.62
6532;BME280;3299;42.004;24.868;2023-04-03T09:09:42;97476.94;;;13.70;61.11
6532;BME280;3299;42.004;24.868;2023-04-03T09:15:16;97583.06;;;14.46;61.30
6532;BME280;3299;42.004;24.868;2023-04-03T09:23:15;97505.28;;;14.08;61.32
6532;BME280;3299;42.004;24.868;2023-04-03T09:25:43;97564.34;;;14.43;62.40
6532;BME280;3299;42.004;24.868;2023-04-03T09:28:11;97511.22;;;14.01;63.17
6532;BME280;3299;42.004;24.868;2023-04-03T09:30:37;97501.69;;;13.92;63.49
6532;BME280;3299;42.004;24.868;2023-04-03T09:33:04;97495.19;;;13.88;63.82
6532;BME280;3299;42.004;24.868;2023-04-03T09:35:35;97558.69;;;14.30;64.79
6532;BME280;3299;42.004;24.868;2023-04-03T09:38:21;97568.88;;;14.23;63.04
6532;BME280;3299;42.004;24.868;2023-04-03T09:43:30;97483.66;;;13.90;64.42
6532;BME280;3299;42.004;24.868;2023-04-03T09:46:16;97498.16;;;13.93;66.67
6532;BME280;3299;42.004;24.868;2023-04-03T09:49:11;97554.25;;;14.40;68.19
6532;BME280;3299;42.004;24.868;2023-04-03T09:51:37;97472.56;;;13.88;67.87
6532;BME280;3299;42.004;24.868;2023-04-03T09:54:35;97550.28;;;14.36;68.72
6532;BME280;3299;42.004;24.868;2023-04-03T09:57:11;97537.56;;;14.33;69.81
6532;BME280;3299;42.004;24.868;2023-04-03T09:59:44;97526.84;;;14.18;70.60
6532;BME280;3299;42.004;24.868;2023-04-03T10:04:50;97518.31;;;14.08;74.17
6532;BME280;3299;42.004;24.868;2023-04-03T10:07:45;97543.38;;;14.27;74.91
6532;BME280;3299;42.004;24.868;2023-04-03T10:12:40;97457.56;;;13.82;77.28
6532;BME280;3299;42.004;24.868;2023-04-03T10:15:15;97534.06;;;14.24;78.14
6532;BME280;3299;42.004;24.868;2023-04-03T10:17:57;97519.53;;;14.31;74.05
6532;BME280;3299;42.004;24.868;2023-04-03T10:20:39;97474.50;;;14.04;73.63
6532;BME280;3299;42.004;24.868;2023-04-03T10:23:33;97550.81;;;14.57;71.95
6532;BME280;3299;42.004;24.868;2023-04-03T10:29:25;97502.19;;;14.40;70.29
6532;BME280;3299;42.004;24.868;2023-04-03T10:32:02;97498.19;;;14.28;70.00
6532;BME280;3299;42.004;24.868;2023-04-03T10:34:40;97502.84;;;14.07;68.75
6532;BME280;3299;42.004;24.868;2023-04-03T10:40:15;97544.66;;;14.23;70.20
6532;BME280;3299;42.004;24.868;2023-04-03T10:43:15;97467.97;;;13.65;72.99
6532;BME280;3299;42.004;24.868;2023-04-03T10:54:10;97553.72;;;13.92;76.02
6532;BME280;3299;42.004;24.868;2023-04-03T10:56:42;97488.00;;;13.55;78.27
6532;BME280;3299;42.004;24.868;2023-04-03T11:01:56;97452.00;;;13.33;79.32
6532;BME280;3299;42.004;24.868;2023-04-03T11:04:26;97495.28;;;13.69;80.16
6532;BME280;3299;42.004;24.868;2023-04-03T11:07:08;97513.81;;;13.83;80.29
6532;BME280;3299;42.004;24.868;2023-04-03T11:09:40;97525.28;;;13.90;81.86
6532;BME280;3299;42.004;24.868;2023-04-03T11:12:14;97518.66;;;13.96;80.64
6532;BME280;3299;42.004;24.868;2023-04-03T11:14:41;97510.91;;;14.04;82.89
6532;BME280;3299;42.004;24.868;2023-04-03T11:19:42;97471.69;;;13.80;80.89
6532;BME280;3299;42.004;24.868;2023-04-03T11:25:26;97441.03;;;13.39;82.24
6532;BME280;3299;42.004;24.868;2023-04-03T11:28:01;97526.31;;;13.97;84.26
6532;BME280;3299;42.004;24.868;2023-04-03T11:35:56;97510.31;;;14.10;84.96
6532;BME280;3299;42.004;24.868;2023-04-03T11:38:34;97506.03;;;14.01;86.34
6532;BME280;3299;42.004;24.868;2023-04-03T11:41:03;97516.44;;;14.01;87.15
6532;BME280;3299;42.004;24.868;2023-04-03T11:43:31;97452.06;;;13.68;89.09
6532;BME280;3299;42.004;24.868;2023-04-03T11:46:03;97507.00;;;14.00;91.69
6532;BME280;3299;42.004;24.868;2023-04-03T11:51:01;97462.78;;;13.65;96.52
6532;BME280;3299;42.004;24.868;2023-04-03T11:53:35;97480.22;;;13.72;95.44
6532;BME280;3299;42.004;24.868;2023-04-03T12:02:14;97480.53;;;13.69;99.68
6532;BME280;3299;42.004;24.868;2023-04-03T12:04:38;97421.34;;;13.36;99.22
6532;BME280;3299;42.004;24.868;2023-04-03T12:07:16;97502.22;;;13.78;100.00
6532;BME280;3299;42.004;24.868;2023-04-03T12:12:36;97479.47;;;13.62;100.00
6532;BME280;3299;42.004;24.868;2023-04-03T12:18:40;97497.47;;;13.73;100.00
6532;BME280;3299;42.004;24.868;2023-04-03T12:21:07;97471.75;;;13.53;100.00
6532;BME280;3299;42.004;24.868;2023-04-03T12:23:34;97422.47;;;13.34;100.00
6532;BME280;3299;42.004;24.868;2023-04-03T12:26:18;97434.16;;;13.47;100.00
6532;BME280;3299;42.004;24.868;2023-04-03T12:28:45;97469.06;;;13.62;100.00
6532;BME280;3299;42.004;24.868;2023-04-03T12:31:12;97432.84;;;13.34;100.00
6532;BME280;3299;42.004;24.868;2023-04-03T12:33:51;97481.34;;;13.70;100.00
6532;BME280;3299;42.004;24.868;2023-04-03T12:39:10;97474.16;;;13.37;100.00
6532;BME280;3299;42.004;24.868;2023-04-03T12:42:01;97471.25;;;13.40;100.00
6532;BME280;3299;42.004;24.868;2023-04-03T12:45:06;97469.41;;;13.32;100.00
6532;BME280;3299;42.004;24.868;2023-04-03T12:47:35;97417.56;;;13.04;100.00
6532;BME280;3299;42.004;24.868;2023-04-03T12:50:05;97411.38;;;13.14;100.00
6532;BME280;3299;42.004;24.868;2023-04-03T12:52:54;97453.25;;;13.56;100.00
6532;BME280;3299;42.004;24.868;2023-04-03T12:55:22;97456.97;;;13.71;100.00
6532;BME280;3299;42.004;24.868;2023-04-03T12:57:48;97455.84;;;13.56;100.00
6532;BME280;3299;42.004;24.868;2023-04-03T13:02:57;97457.25;;;13.68;100.00
6532;BME280;3299;42.004;24.868;2023-04-03T13:05:23;97466.91;;;13.58;100.00
6532;BME280;3299;42.004;24.868;2023-04-03T13:07:58;97445.50;;;13.19;100.00
6532;BME280;3299;42.004;24.868;2023-04-03T13:10:24;97442.63;;;12.95;100.00
6532;BME280;3299;42.004;24.868;2023-04-03T13:12:59;97432.16;;;13.14;100.00
6532;BME280;3299;42.004;24.868;2023-04-03T13:15:41;97410.63;;;13.22;100.00
6532;BME280;3299;42.004;24.868;2023-04-03T13:18:32;97459.66;;;13.61;100.00
6532;BME280;3299;42.004;24.868;2023-04-03T13:21:17;97455.03;;;13.73;100.00
6532;BME280;3299;42.004;24.868;2023-04-03T13:23:47;97418.69;;;13.46;100.00
6532;BME280;3299;42.004;24.868;2023-04-03T13:26:16;97445.66;;;13.45;100.00
6532;BME280;3299;42.004;24.868;2023-04-03T13:28:42;97378.81;;;13.20;100.00
6532;BME280;3299;42.004;24.868;2023-04-03T13:33:43;97429.13;;;13.63;100.00
6532;BME280;3299;42.004;24.868;2023-04-03T13:36:23;97397.69;;;13.57;100.00
6532;BME280;3299;42.004;24.868;2023-04-03T13:39:34;97357.00;;;13.30;100.00
6532;BME280;3299;42.004;24.868;2023-04-03T13:41:55;97334.00;;;13.18;100.00
6532;BME280;3299;42.004;24.868;2023-04-03T13:46:47;97398.72;;;13.46;100.00
6532;BME280;3299;42.004;24.868;2023-04-03T13:49:35;97391.25;;;13.43;100.00
6532;BME280;3299;42.004;24.868;2023-04-03T13:54:52;97382.00;;;13.31;100.00
6532;BME280;3299;42.004;24.868;2023-04-03T13:57:18;97302.97;;;12.89;100.00
6532;BME280;3299;42.004;24.868;2023-04-03T13:59:43;97298.16;;;12.77;100.00
6532;BME280;3299;42.004;24.868;2023-04-03T14:07:09;97341.25;;;13.14;100.00
6532;BME280;3299;42.004;24.868;2023-04-03T14:09:35;97330.09;;;12.77;100.00
6532;BME280;3299;42.004;24.868;2023-04-03T14:12:06;97354.66;;;12.83;100.00
6532;BME280;3299;42.004;24.868;2023-04-03T14:14:34;97353.06;;;12.72;100.00
6532;BME280;3299;42.004;24.868;2023-04-03T14:17:02;97304.56;;;12.46;100.00
6532;BME280;3299;42.004;24.868;2023-04-03T14:19:31;97351.16;;;12.74;100.00
6532;BME280;3299;42.004;24.868;2023-04-03T14:21:58;97276.13;;;12.27;100.00
6532;BME280;3299;42.004;24.868;2023-04-03T14:24:24;97346.50;;;12.78;100.00
6532;BME280;3299;42.004;24.868;2023-04-03T14:26:52;97368.97;;;12.87;100.00
6532;BME280;3299;42.004;24.868;2023-04-03T14:29:19;97358.78;;;12.76;100.00
6532;BME280;3299;42.004;24.868;2023-04-03T14:31:46;97366.72;;;12.74;100.00
6532;BME280;3299;42.004;24.868;2023-04-03T14:34:13;97317.63;;;12.27;100.00
6532;BME280;3299;42.004;24.868;2023-04-03T14:36:39;97372.16;;;12.54;100.00
6532;BME280;3299;42.004;24.868;2023-04-03T14:39:07;97307.16;;;12.19;100.00
6532;BME280;3299;42.004;24.868;2023-04-03T14:41:33;97306.97;;;12.20;100.00
6532;BME280;3299;42.004;24.868;2023-04-03T14:43:59;97280.03;;;12.04;100.00
6532;BME280;3299;42.004;24.868;2023-04-03T14:46:29;97354.81;;;12.45;100.00
6532;BME280;3299;42.004;24.868;2023-04-03T14:48:55;97317.94;;;12.14;100.00
6532;BME280;3299;42.004;24.868;2023-04-03T14:51:20;97305.00;;;12.05;100.00
6532;BME280;3299;42.004;24.868;2023-04-03T14:53:46;97331.13;;;12.30;100.00
6532;BME280;3299;42.004;24.868;2023-04-03T14:56:19;97306.63;;;12.15;100.00